createdAt,value
2022-09-18T00:00:43.412Z,15.78
2022-09-18T00:02:47.599Z,15.74
2022-09-18T00:04:49.246Z,15.74
2022-09-18T00:06:50.866Z,15.79
2022-09-18T00:08:53.577Z,15.91
2022-09-18T00:10:55.288Z,15.85
2022-09-18T00:12:56.843Z,15.80
2022-09-18T00:14:59.766Z,15.78
2022-09-18T00:17:08.433Z,15.81
2022-09-18T00:19:11.585Z,15.80
2022-09-18T00:21:15.129Z,15.84
2022-09-18T00:23:16.630Z,15.88
2022-09-18T00:25:18.478Z,15.90
2022-09-18T00:27:20.119Z,15.84
2022-09-18T00:29:21.642Z,15.79
2022-09-18T00:31:26.658Z,15.81
2022-09-18T00:33:28.293Z,15.78
2022-09-18T00:35:29.877Z,15.77
2022-09-18T00:37:31.591Z,15.75
2022-09-18T00:39:33.151Z,15.77
2022-09-18T00:41:36.565Z,15.73
2022-09-18T00:43:38.237Z,15.69
2022-09-18T00:45:39.800Z,15.72
2022-09-18T00:47:45.877Z,15.72
2022-09-18T00:49:51.150Z,15.74
2022-09-18T00:51:55.349Z,15.76
2022-09-18T00:54:06.524Z,15.71
2022-09-18T00:56:12.540Z,15.72
2022-09-18T00:58:14.869Z,15.78
2022-09-18T01:00:16.613Z,15.81
2022-09-18T01:02:18.481Z,15.84
2022-09-18T01:04:21.874Z,15.78
2022-09-18T01:06:32.922Z,15.77
2022-09-18T01:08:47.397Z,15.79
2022-09-18T01:11:03.408Z,15.76
2022-09-18T01:13:15.086Z,15.81
2022-09-18T01:15:23.736Z,15.79
2022-09-18T01:17:31.549Z,15.75
2022-09-18T01:19:52.682Z,15.73
2022-09-18T01:22:05.965Z,15.72
2022-09-18T01:24:44.096Z,15.73
2022-09-18T01:26:53.350Z,15.67
2022-09-18T01:28:58.987Z,15.70
2022-09-18T01:31:06.182Z,15.71
2022-09-18T01:33:17.144Z,15.69
2022-09-18T01:35:40.646Z,15.67
2022-09-18T01:37:48.674Z,15.72
2022-09-18T01:39:55.861Z,15.73
2022-09-18T01:41:57.989Z,15.70
2022-09-18T01:44:06.871Z,15.72
2022-09-18T01:46:11.617Z,15.67
2022-09-18T01:48:21.100Z,15.68
2022-09-18T01:50:27.087Z,15.67
2022-09-18T01:52:33.028Z,15.68
2022-09-18T01:54:38.787Z,15.70
2022-09-18T01:56:46.404Z,15.70
2022-09-18T01:58:50.185Z,15.68
2022-09-18T02:00:56.690Z,15.70
2022-09-18T02:03:02.717Z,15.69
2022-09-18T02:05:09.305Z,15.67
2022-09-18T02:07:16.248Z,15.62
2022-09-18T02:09:17.743Z,15.62
2022-09-18T02:11:21.353Z,15.60
2022-09-18T02:13:27.670Z,15.63
2022-09-18T02:15:31.765Z,15.62
2022-09-18T02:17:42.225Z,15.58
2022-09-18T02:19:49.052Z,15.58
2022-09-18T02:21:52.873Z,15.63
2022-09-18T02:23:57.839Z,15.63
2022-09-18T02:26:02.426Z,15.68
2022-09-18T02:28:07.107Z,15.60
2022-09-18T02:30:10.354Z,15.61
2022-09-18T02:32:12.671Z,15.58
2022-09-18T02:34:17.392Z,15.36
2022-09-18T02:36:33.435Z,15.39
2022-09-18T02:38:43.496Z,15.42
2022-09-18T02:40:55.208Z,15.46
2022-09-18T02:43:15.137Z,15.42
2022-09-18T02:45:26.386Z,15.40
2022-09-18T02:47:38.940Z,15.45
2022-09-18T02:49:49.795Z,15.33
2022-09-18T02:51:57.593Z,15.41
2022-09-18T02:54:07.366Z,15.42
2022-09-18T02:56:14.765Z,15.42
2022-09-18T02:58:21.577Z,15.40
2022-09-18T03:00:24.204Z,15.34
2022-09-18T03:02:26.375Z,15.18
2022-09-18T03:04:28.350Z,15.19
2022-09-18T03:06:31.291Z,15.16
2022-09-18T03:08:32.999Z,15.18
2022-09-18T03:10:34.509Z,15.27
2022-09-18T03:12:36.030Z,15.26
2022-09-18T03:14:37.621Z,15.23
2022-09-18T03:16:39.096Z,15.24
2022-09-18T03:18:40.600Z,15.24
2022-09-18T03:20:42.825Z,15.22
2022-09-18T03:22:45.744Z,15.26
2022-09-18T03:24:47.240Z,15.24
2022-09-18T03:26:48.803Z,15.16
2022-09-18T03:28:50.328Z,15.14
2022-09-18T03:30:51.978Z,15.11
2022-09-18T03:32:53.548Z,15.16
2022-09-18T03:34:55.701Z,15.09
2022-09-18T03:36:57.208Z,15.13
2022-09-18T03:39:00.193Z,15.12
2022-09-18T03:41:01.682Z,14.96
2022-09-18T03:43:03.318Z,14.94
2022-09-18T03:45:06.361Z,15.10
2022-09-18T03:47:07.978Z,15.17
2022-09-18T03:49:09.465Z,15.18
2022-09-18T03:51:10.944Z,15.25
2022-09-18T03:53:12.412Z,15.24
2022-09-18T03:55:15.461Z,15.23
2022-09-18T03:57:17.079Z,15.21
2022-09-18T03:59:18.983Z,15.10
2022-09-18T04:01:20.639Z,15.10
2022-09-18T04:03:22.239Z,15.11
2022-09-18T04:05:23.843Z,15.21
2022-09-18T04:07:25.534Z,15.24
2022-09-18T04:09:27.031Z,15.14
2022-09-18T04:11:30.110Z,15.21
2022-09-18T04:13:31.791Z,15.13
2022-09-18T04:15:33.367Z,15.03
2022-09-18T04:17:34.907Z,14.98
2022-09-18T04:19:36.482Z,14.73
2022-09-18T04:21:38.103Z,14.81
2022-09-18T04:23:39.591Z,14.79
2022-09-18T04:25:41.600Z,14.77
2022-09-18T04:27:44.686Z,14.89
2022-09-18T04:29:46.184Z,14.93
2022-09-18T04:31:47.845Z,14.93
2022-09-18T04:33:49.478Z,14.69
2022-09-18T04:35:50.952Z,14.83
2022-09-18T04:37:52.469Z,14.79
2022-09-18T04:39:54.073Z,14.85
2022-09-18T04:41:55.666Z,14.86
2022-09-18T04:43:58.476Z,14.91
2022-09-18T04:46:00.020Z,14.94
2022-09-18T04:48:02.140Z,14.95
2022-09-18T04:50:04.464Z,15.05
2022-09-18T04:52:05.962Z,15.05
2022-09-18T04:54:07.458Z,15.00
2022-09-18T04:56:09.039Z,15.05
2022-09-18T04:58:10.988Z,15.00
2022-09-18T05:00:14.352Z,14.83
2022-09-18T05:02:15.925Z,14.84
2022-09-18T05:04:17.548Z,14.90
2022-09-18T05:06:19.101Z,14.93
2022-09-18T05:08:20.953Z,14.93
2022-09-18T05:10:22.599Z,14.92
2022-09-18T05:12:24.107Z,14.93
2022-09-18T05:14:25.652Z,15.01
2022-09-18T05:16:28.664Z,15.02
2022-09-18T05:18:30.260Z,15.09
2022-09-18T05:20:33.812Z,15.06
2022-09-18T05:22:35.432Z,14.96
2022-09-18T05:24:36.934Z,14.99
2022-09-18T05:26:38.443Z,15.01
2022-09-18T05:28:40.348Z,15.02
2022-09-18T05:30:41.900Z,14.99
2022-09-18T05:32:44.749Z,15.02
2022-09-18T05:34:46.609Z,15.06
2022-09-18T05:36:48.116Z,15.00
2022-09-18T05:38:49.621Z,15.03
2022-09-18T05:40:51.192Z,14.98
2022-09-18T05:42:53.102Z,15.03
2022-09-18T05:44:56.698Z,14.96
2022-09-18T05:47:01.637Z,15.02
2022-09-18T05:49:04.553Z,15.09
2022-09-18T05:51:06.071Z,15.06
2022-09-18T05:53:11.084Z,15.14
2022-09-18T05:55:12.956Z,15.11
2022-09-18T05:57:14.563Z,15.15
2022-09-18T05:59:16.154Z,15.18
2022-09-18T06:01:17.664Z,15.19
2022-09-18T06:03:19.287Z,15.24
2022-09-18T06:05:22.543Z,15.23
2022-09-18T06:07:24.177Z,15.16
2022-09-18T06:09:25.760Z,15.23
2022-09-18T06:11:27.644Z,15.27
2022-09-18T06:13:29.221Z,15.32
2022-09-18T06:15:31.150Z,15.30
2022-09-18T06:17:32.910Z,15.30
2022-09-18T06:19:34.483Z,15.29
2022-09-18T06:21:37.374Z,15.29
2022-09-18T06:23:38.949Z,15.23
2022-09-18T06:25:40.624Z,15.25
2022-09-18T06:27:42.115Z,15.28
2022-09-18T06:29:43.702Z,15.14
2022-09-18T06:31:45.246Z,15.22
2022-09-18T06:33:47.844Z,15.26
2022-09-18T06:35:49.392Z,15.31
2022-09-18T06:37:52.239Z,15.36
2022-09-18T06:39:53.754Z,15.39
2022-09-18T06:41:55.478Z,15.41
2022-09-18T06:43:57.236Z,15.42
2022-09-18T06:45:58.821Z,15.44
2022-09-18T06:48:01.413Z,15.40
2022-09-18T06:50:03.380Z,15.41
2022-09-18T06:52:05.169Z,15.39
2022-09-18T06:54:08.092Z,15.56
2022-09-18T06:56:09.634Z,15.53
2022-09-18T06:58:11.651Z,15.51
2022-09-18T07:00:13.578Z,15.47
2022-09-18T07:02:19.432Z,15.43
2022-09-18T07:04:21.321Z,15.38
2022-09-18T07:06:25.814Z,15.36
2022-09-18T07:08:27.294Z,15.47
2022-09-18T07:10:30.206Z,15.48
2022-09-18T07:12:31.768Z,15.50
2022-09-18T07:14:33.298Z,15.54
2022-09-18T07:16:35.303Z,15.54
2022-09-18T07:18:36.939Z,15.57
2022-09-18T07:20:38.496Z,15.53
2022-09-18T07:22:44.967Z,15.54
2022-09-18T07:24:48.744Z,15.68
2022-09-18T07:26:51.582Z,15.74
2022-09-18T07:28:53.112Z,15.76
2022-09-18T07:30:55.017Z,15.67
2022-09-18T07:32:56.572Z,15.67
2022-09-18T07:34:58.128Z,15.59
2022-09-18T07:37:02.758Z,15.96
2022-09-18T07:39:04.578Z,16.10
2022-09-18T07:41:07.916Z,16.13
2022-09-18T07:43:11.278Z,16.02
2022-09-18T07:45:12.823Z,15.96
2022-09-18T07:47:14.325Z,15.85
2022-09-18T07:49:16.022Z,15.79
2022-09-18T07:51:18.827Z,15.82
2022-09-18T07:53:21.825Z,15.86
2022-09-18T07:55:25.707Z,15.86
2022-09-18T07:57:27.265Z,15.89
2022-09-18T07:59:30.182Z,15.83
2022-09-18T08:01:33.583Z,15.88
2022-09-18T08:03:41.025Z,15.95
2022-09-18T08:05:43.015Z,15.97
2022-09-18T08:07:44.580Z,15.96
2022-09-18T08:09:46.226Z,16.02
2022-09-18T08:11:51.043Z,16.09
2022-09-18T08:13:52.809Z,16.09
2022-09-18T08:15:55.722Z,16.08
2022-09-18T08:17:57.356Z,16.08
2022-09-18T08:19:59.102Z,16.11
2022-09-18T08:22:01.045Z,16.17
2022-09-18T08:24:03.073Z,16.16
2022-09-18T08:26:05.518Z,16.16
2022-09-18T08:28:07.034Z,16.18
2022-09-18T08:30:10.893Z,16.17
2022-09-18T08:32:13.804Z,16.24
2022-09-18T08:34:15.319Z,16.34
2022-09-18T08:36:16.836Z,16.38
2022-09-18T08:38:18.579Z,16.43
2022-09-18T08:40:22.628Z,16.38
2022-09-18T08:42:30.783Z,16.33
2022-09-18T08:44:42.601Z,16.41
2022-09-18T08:46:49.039Z,16.41
2022-09-18T08:48:59.313Z,16.39
2022-09-18T08:51:06.858Z,16.39
2022-09-18T08:53:16.573Z,16.47
2022-09-18T08:55:24.334Z,16.44
2022-09-18T08:57:30.684Z,16.38
2022-09-18T08:59:38.388Z,16.37
2022-09-18T09:01:46.811Z,16.40
2022-09-18T09:03:57.383Z,16.44
2022-09-18T09:06:05.219Z,16.37
2022-09-18T09:08:32.914Z,16.40
2022-09-18T09:10:47.335Z,16.46
2022-09-18T09:12:56.978Z,16.38
2022-09-18T09:15:21.803Z,16.35
2022-09-18T09:17:38.003Z,16.47
2022-09-18T09:19:47.113Z,16.48
2022-09-18T09:21:57.826Z,16.47
2022-09-18T09:24:13.250Z,16.47
2022-09-18T09:26:18.185Z,16.56
2022-09-18T09:28:24.867Z,16.57
2022-09-18T09:30:33.286Z,16.68
2022-09-18T09:32:39.866Z,16.71
2022-09-18T09:34:48.183Z,16.71
2022-09-18T09:36:52.958Z,16.67
2022-09-18T09:38:59.991Z,16.65
2022-09-18T09:41:12.458Z,16.71
2022-09-18T09:43:20.148Z,16.84
2022-09-18T09:45:27.649Z,16.83
2022-09-18T09:47:38.355Z,16.92
2022-09-18T09:49:50.679Z,17.02
2022-09-18T09:52:06.925Z,16.97
2022-09-18T09:54:12.309Z,16.97
2022-09-18T09:56:20.522Z,17.02
2022-09-18T09:58:35.743Z,16.99
2022-09-18T10:00:43.504Z,17.01
2022-09-18T10:03:01.134Z,17.14
2022-09-18T10:05:16.193Z,17.24
2022-09-18T10:07:23.633Z,17.21
2022-09-18T10:09:39.585Z,17.21
2022-09-18T10:11:43.313Z,17.17
2022-09-18T10:13:49.763Z,17.31
2022-09-18T10:15:55.909Z,17.56
2022-09-18T10:18:01.668Z,17.55
2022-09-18T10:20:06.167Z,17.57
2022-09-18T10:22:11.696Z,17.39
2022-09-18T10:24:20.617Z,17.27
2022-09-18T10:26:26.323Z,17.15
2022-09-18T10:28:28.345Z,17.37
2022-09-18T10:30:29.909Z,17.36
2022-09-18T10:32:33.645Z,17.33
2022-09-18T10:34:40.084Z,17.35
2022-09-18T10:36:44.510Z,17.31
2022-09-18T10:38:46.420Z,17.30
2022-09-18T10:40:48.067Z,17.20
2022-09-18T10:42:54.232Z,17.25
2022-09-18T10:45:01.436Z,17.26
2022-09-18T10:47:07.639Z,17.20
2022-09-18T10:49:19.171Z,17.20
2022-09-18T10:51:22.798Z,17.17
2022-09-18T10:53:30.463Z,17.21
2022-09-18T10:55:32.062Z,17.25
2022-09-18T10:57:35.318Z,17.26
2022-09-18T10:59:37.046Z,17.30
2022-09-18T11:01:41.483Z,17.10
2022-09-18T11:03:59.468Z,17.19
2022-09-18T11:06:03.998Z,17.25
2022-09-18T11:08:13.283Z,17.26
2022-09-18T11:10:19.061Z,17.24
2022-09-18T11:12:22.678Z,17.31
2022-09-18T11:14:26.956Z,17.34
2022-09-18T11:16:31.169Z,17.32
2022-09-18T11:18:33.358Z,17.32
2022-09-18T11:20:41.870Z,17.27
2022-09-18T11:22:44.073Z,17.26
2022-09-18T11:24:47.520Z,17.23
2022-09-18T11:26:52.206Z,17.25
2022-09-18T11:29:05.274Z,17.29
2022-09-18T11:31:13.663Z,17.29
2022-09-18T11:33:24.684Z,17.26
2022-09-18T11:35:28.643Z,17.41
2022-09-18T11:37:34.800Z,17.42
2022-09-18T11:39:41.344Z,17.34
2022-09-18T11:41:43.867Z,17.39
2022-09-18T11:43:59.896Z,17.38
2022-09-18T11:46:13.314Z,17.40
2022-09-18T11:48:23.930Z,17.35
2022-09-18T11:50:29.375Z,17.32
2022-09-18T11:52:36.811Z,17.35
2022-09-18T11:54:45.678Z,17.37
2022-09-18T11:56:52.054Z,17.19
2022-09-18T11:59:01.326Z,17.18
2022-09-18T12:01:14.357Z,17.29
2022-09-18T12:03:22.224Z,17.27
2022-09-18T12:05:28.338Z,17.27
2022-09-18T12:07:40.356Z,17.33
2022-09-18T12:09:47.429Z,17.26
2022-09-18T12:11:56.415Z,17.16
2022-09-18T12:14:11.564Z,17.18
2022-09-18T12:16:19.660Z,16.98
2022-09-18T12:18:25.869Z,17.06
2022-09-18T12:20:31.334Z,17.04
2022-09-18T12:22:41.461Z,17.08
2022-09-18T12:24:43.037Z,17.08
2022-09-18T12:26:53.001Z,17.05
2022-09-18T12:29:11.528Z,17.19
2022-09-18T12:31:20.951Z,17.29
2022-09-18T12:33:34.429Z,17.23
2022-09-18T12:35:51.228Z,17.18
2022-09-18T12:38:03.678Z,17.15
2022-09-18T12:40:24.250Z,17.25
2022-09-18T12:42:36.482Z,17.32
2022-09-18T12:44:55.196Z,17.35
2022-09-18T12:47:12.481Z,17.34
2022-09-18T12:49:34.158Z,17.38
2022-09-18T12:51:44.508Z,17.39
2022-09-18T12:53:55.340Z,17.29
2022-09-18T12:56:11.122Z,17.27
2022-09-18T12:58:30.780Z,17.35
2022-09-18T13:00:36.783Z,17.34
2022-09-18T13:02:48.123Z,17.21
2022-09-18T13:05:00.379Z,17.04
2022-09-18T13:07:06.953Z,17.17
2022-09-18T13:09:15.593Z,17.17
2022-09-18T13:11:30.034Z,17.32
2022-09-18T13:13:38.216Z,17.24
2022-09-18T13:15:46.042Z,17.20
2022-09-18T13:17:52.337Z,17.00
2022-09-18T13:19:59.483Z,17.14
2022-09-18T13:22:05.681Z,17.18
2022-09-18T13:24:13.417Z,17.20
2022-09-18T13:26:15.685Z,17.20
2022-09-18T13:28:20.276Z,17.25
2022-09-18T13:30:27.518Z,17.24
2022-09-18T13:32:41.758Z,17.23
2022-09-18T13:34:49.654Z,17.31
2022-09-18T13:36:51.275Z,17.34
2022-09-18T13:38:53.614Z,17.14
2022-09-18T13:41:01.313Z,17.14
2022-09-18T13:43:30.369Z,17.13
2022-09-18T13:45:37.788Z,17.25
2022-09-18T13:48:02.483Z,17.15
2022-09-18T13:50:05.295Z,17.19
2022-09-18T13:52:28.526Z,17.15
2022-09-18T13:54:30.201Z,17.11
2022-09-18T13:57:17.414Z,17.19
2022-09-18T13:59:22.318Z,17.27
2022-09-18T14:02:02.975Z,17.26
2022-09-18T14:04:58.412Z,17.17
2022-09-18T14:06:59.927Z,17.22
2022-09-18T14:09:02.313Z,17.24
2022-09-18T14:11:21.544Z,17.29
2022-09-18T14:13:38.306Z,17.29
2022-09-18T14:15:50.496Z,17.31
2022-09-18T14:18:05.861Z,17.29
2022-09-18T14:20:19.699Z,17.30
2022-09-18T14:22:23.649Z,17.23
2022-09-18T14:24:55.342Z,17.27
2022-09-18T14:27:00.629Z,17.24
2022-09-18T14:29:09.907Z,17.23
2022-09-18T14:31:17.965Z,17.27
2022-09-18T14:33:20.787Z,17.35
2022-09-18T14:35:31.508Z,17.33
2022-09-18T14:37:36.058Z,17.33
2022-09-18T14:39:38.218Z,17.37
2022-09-18T14:41:39.867Z,17.38
2022-09-18T14:43:48.250Z,17.33
2022-09-18T14:45:52.076Z,17.35
2022-09-18T14:47:57.382Z,17.34
2022-09-18T14:49:58.958Z,17.35
2022-09-18T14:52:05.434Z,17.25
2022-09-18T14:54:20.398Z,17.21
2022-09-18T14:56:26.716Z,17.19
2022-09-18T14:58:33.123Z,17.22
2022-09-18T15:00:37.367Z,17.31
2022-09-18T15:02:40.563Z,17.32
2022-09-18T15:04:42.483Z,17.31
2022-09-18T15:06:46.539Z,17.31
2022-09-18T15:08:50.916Z,17.34
2022-09-18T15:10:56.431Z,17.36
2022-09-18T15:12:59.552Z,17.37
2022-09-18T15:15:24.997Z,17.35
2022-09-18T15:17:28.256Z,17.39
2022-09-18T15:19:32.610Z,17.39
2022-09-18T15:21:45.964Z,17.39
2022-09-18T15:23:47.769Z,17.40
2022-09-18T15:25:52.368Z,17.42
2022-09-18T15:27:56.689Z,17.35
2022-09-18T15:30:01.824Z,17.34
2022-09-18T15:32:05.092Z,17.38
2022-09-18T15:34:13.145Z,17.39
2022-09-18T15:36:24.541Z,17.38
2022-09-18T15:38:33.776Z,17.40
2022-09-18T15:40:38.210Z,17.39
2022-09-18T15:42:50.821Z,17.35
2022-09-18T15:45:15.447Z,17.33
2022-09-18T15:47:30.112Z,17.36
2022-09-18T15:49:34.605Z,17.29
2022-09-18T15:51:37.688Z,17.32
2022-09-18T15:53:39.450Z,17.32
2022-09-18T15:55:53.991Z,17.38
2022-09-18T15:57:58.882Z,17.39
2022-09-18T16:00:00.598Z,17.41
2022-09-18T16:02:18.173Z,17.40
2022-09-18T16:04:23.059Z,17.43
2022-09-18T16:06:27.241Z,17.43
2022-09-18T16:08:32.385Z,17.39
2022-09-18T16:10:48.394Z,17.31
2022-09-18T16:12:50.423Z,17.36
2022-09-18T16:15:13.312Z,17.42
2022-09-18T16:17:37.047Z,17.34
2022-09-18T16:19:43.369Z,17.43
2022-09-18T16:21:44.960Z,17.43
2022-09-18T16:23:49.964Z,17.40
2022-09-18T16:26:03.315Z,17.43
2022-09-18T16:28:14.726Z,17.48
2022-09-18T16:30:16.354Z,17.45
2022-09-18T16:32:17.890Z,17.44
2022-09-18T16:34:21.835Z,17.43
2022-09-18T16:36:29.880Z,17.46
2022-09-18T16:38:31.811Z,17.43
2022-09-18T16:40:35.314Z,17.38
2022-09-18T16:42:37.241Z,17.42
2022-09-18T16:44:38.760Z,17.35
2022-09-18T16:46:43.033Z,17.50
2022-09-18T16:48:44.674Z,17.51
2022-09-18T16:50:46.220Z,17.48
2022-09-18T16:52:48.925Z,17.52
2022-09-18T16:54:50.486Z,17.46
2022-09-18T16:57:00.957Z,17.35
2022-09-18T16:59:05.297Z,17.48
2022-09-18T17:01:07.462Z,17.44
2022-09-18T17:03:09.287Z,17.39
2022-09-18T17:05:10.890Z,17.37
2022-09-18T17:07:15.148Z,17.33
2022-09-18T17:09:16.715Z,17.31
2022-09-18T17:11:18.681Z,17.31
2022-09-18T17:13:22.222Z,17.27
2022-09-18T17:15:24.171Z,17.32
2022-09-18T17:17:25.954Z,17.27
2022-09-18T17:19:29.766Z,17.27
2022-09-18T17:21:31.512Z,17.26
2022-09-18T17:23:33.611Z,17.30
2022-09-18T17:25:35.298Z,17.30
2022-09-18T17:27:41.732Z,17.27
2022-09-18T17:29:46.517Z,17.27
2022-09-18T17:31:48.401Z,17.24
2022-09-18T17:33:53.741Z,17.18
2022-09-18T17:35:55.566Z,17.20
2022-09-18T17:37:58.061Z,17.17
2022-09-18T17:40:01.577Z,17.18
2022-09-18T17:42:03.445Z,17.11
2022-09-18T17:44:05.786Z,17.13
2022-09-18T17:46:11.259Z,17.14
2022-09-18T17:48:12.955Z,17.13
2022-09-18T17:50:14.743Z,17.11
2022-09-18T17:52:16.791Z,17.13
2022-09-18T17:54:18.559Z,17.05
2022-09-18T17:56:20.525Z,16.99
2022-09-18T17:58:22.198Z,16.99
2022-09-18T18:00:24.040Z,16.91
2022-09-18T18:02:27.187Z,16.86
2022-09-18T18:04:29.701Z,16.87
2022-09-18T18:06:31.498Z,16.87
2022-09-18T18:08:33.889Z,16.77
2022-09-18T18:10:35.939Z,16.75
2022-09-18T18:12:37.503Z,16.76
2022-09-18T18:14:39.142Z,16.85
2022-09-18T18:16:41.052Z,16.80
2022-09-18T18:18:44.347Z,16.74
2022-09-18T18:20:49.543Z,16.75
2022-09-18T18:22:51.593Z,16.78
2022-09-18T18:24:53.322Z,16.77
2022-09-18T18:26:55.818Z,16.77
2022-09-18T18:28:57.713Z,16.70
2022-09-18T18:31:00.660Z,16.72
2022-09-18T18:33:02.656Z,16.74
2022-09-18T18:35:06.507Z,16.78
2022-09-18T18:37:08.371Z,16.75
2022-09-18T18:39:10.875Z,16.68
2022-09-18T18:41:14.065Z,16.59
2022-09-18T18:43:18.048Z,16.49
2022-09-18T18:45:21.146Z,16.37
2022-09-18T18:47:22.804Z,16.22
2022-09-18T18:49:26.124Z,16.19
2022-09-18T18:51:32.537Z,16.21
2022-09-18T18:53:42.339Z,16.14
2022-09-18T18:55:48.251Z,16.22
2022-09-18T18:57:50.068Z,16.18
2022-09-18T18:59:52.055Z,16.20
2022-09-18T19:01:54.887Z,16.24
2022-09-18T19:03:58.636Z,16.24
2022-09-18T19:06:00.284Z,16.21
2022-09-18T19:08:03.795Z,16.24
2022-09-18T19:10:06.239Z,16.22
2022-09-18T19:12:09.666Z,16.18
2022-09-18T19:14:12.935Z,16.25
2022-09-18T19:16:14.879Z,16.27
2022-09-18T19:18:16.690Z,16.25
2022-09-18T19:20:19.346Z,16.24
2022-09-18T19:22:21.162Z,16.24
2022-09-18T19:24:24.607Z,16.22
2022-09-18T19:26:28.509Z,16.21
2022-09-18T19:28:30.866Z,16.14
2022-09-18T19:30:35.411Z,16.22
2022-09-18T19:32:36.999Z,16.19
2022-09-18T19:34:38.788Z,16.20
2022-09-18T19:36:40.812Z,16.22
2022-09-18T19:38:42.612Z,16.19
2022-09-18T19:40:47.829Z,16.21
2022-09-18T19:42:56.357Z,16.26
2022-09-18T19:45:03.119Z,16.28
2022-09-18T19:47:07.491Z,16.27
2022-09-18T19:49:16.158Z,16.27
2022-09-18T19:51:17.995Z,16.27
2022-09-18T19:53:20.115Z,16.37
2022-09-18T19:55:22.126Z,16.33
2022-09-18T19:57:26.572Z,16.27
2022-09-18T19:59:28.717Z,16.32
2022-09-18T20:01:30.661Z,16.33
2022-09-18T20:03:32.423Z,16.28
2022-09-18T20:05:37.928Z,16.30
2022-09-18T20:07:40.660Z,16.27
2022-09-18T20:09:42.412Z,16.28
2022-09-18T20:11:48.134Z,16.23
2022-09-18T20:13:53.386Z,16.26
2022-09-18T20:16:02.752Z,16.25
2022-09-18T20:18:06.833Z,16.29
2022-09-18T20:20:13.287Z,16.23
2022-09-18T20:22:18.940Z,16.20
2022-09-18T20:24:20.930Z,16.25
2022-09-18T20:26:23.019Z,16.25
2022-09-18T20:28:25.073Z,16.26
2022-09-18T20:30:28.213Z,16.30
2022-09-18T20:32:29.915Z,16.23
2022-09-18T20:34:32.021Z,16.11
2022-09-18T20:36:33.918Z,16.04
2022-09-18T20:38:37.261Z,16.02
2022-09-18T20:40:39.625Z,16.00
2022-09-18T20:42:41.290Z,16.03
2022-09-18T20:44:42.861Z,16.00
2022-09-18T20:46:45.884Z,15.94
2022-09-18T20:48:48.964Z,15.93
2022-09-18T20:50:50.805Z,15.91
2022-09-18T20:52:52.396Z,16.03
2022-09-18T20:54:54.020Z,16.12
2022-09-18T20:56:56.089Z,16.13
2022-09-18T20:58:58.236Z,16.03
2022-09-18T21:01:05.677Z,15.96
2022-09-18T21:03:08.848Z,15.82
2022-09-18T21:05:11.674Z,15.74
2022-09-18T21:07:13.285Z,15.56
2022-09-18T21:09:15.159Z,15.50
2022-09-18T21:11:18.731Z,15.39
2022-09-18T21:13:20.381Z,15.32
2022-09-18T21:15:22.033Z,15.30
2022-09-18T21:17:23.750Z,15.33
2022-09-18T21:19:29.284Z,15.27
2022-09-18T21:21:33.070Z,15.21
2022-09-18T21:23:35.249Z,15.14
2022-09-18T21:25:36.803Z,15.10
2022-09-18T21:27:38.363Z,15.07
2022-09-18T21:29:39.888Z,15.06
2022-09-18T21:31:42.643Z,14.94
2022-09-18T21:33:44.491Z,14.90
2022-09-18T21:35:54.281Z,14.90
2022-09-18T21:37:55.836Z,14.83
2022-09-18T21:39:57.398Z,14.72
2022-09-18T21:42:00.329Z,14.71
2022-09-18T21:44:02.104Z,14.65
2022-09-18T21:46:05.983Z,14.55
2022-09-18T21:48:07.577Z,14.56
2022-09-18T21:50:09.404Z,14.69
2022-09-18T21:52:12.339Z,14.75
2022-09-18T21:54:16.162Z,14.63
2022-09-18T21:56:19.239Z,14.75
2022-09-18T21:58:20.716Z,14.78
2022-09-18T22:00:22.251Z,14.69
2022-09-18T22:02:24.053Z,14.65
2022-09-18T22:04:27.674Z,14.58
2022-09-18T22:06:31.422Z,14.65
2022-09-18T22:08:34.371Z,14.70
2022-09-18T22:10:36.012Z,14.65
2022-09-18T22:12:40.082Z,14.55
2022-09-18T22:14:41.712Z,14.45
2022-09-18T22:16:43.627Z,14.44
2022-09-18T22:18:45.494Z,14.37
2022-09-18T22:20:47.079Z,14.35
2022-09-18T22:22:48.602Z,14.38
2022-09-18T22:24:51.510Z,14.35
2022-09-18T22:26:55.593Z,14.32
2022-09-18T22:28:57.125Z,14.34
2022-09-18T22:30:58.829Z,14.35
2022-09-18T22:33:00.433Z,14.33
2022-09-18T22:35:02.043Z,14.34
2022-09-18T22:37:04.712Z,14.37
2022-09-18T22:39:06.734Z,14.40
2022-09-18T22:41:10.484Z,14.37
2022-09-18T22:43:12.109Z,14.40
2022-09-18T22:45:13.802Z,14.34
2022-09-18T22:47:15.332Z,14.40
2022-09-18T22:49:18.282Z,14.38
2022-09-18T22:51:22.242Z,14.35
2022-09-18T22:53:23.741Z,14.38
2022-09-18T22:55:25.278Z,14.33
2022-09-18T22:57:28.242Z,14.32
2022-09-18T22:59:29.741Z,14.41
2022-09-18T23:01:34.015Z,14.42
2022-09-18T23:03:35.781Z,14.36
2022-09-18T23:05:37.563Z,14.30
2022-09-18T23:07:39.160Z,14.22
2022-09-18T23:09:40.689Z,14.29
2022-09-18T23:11:43.635Z,14.19
2022-09-18T23:13:49.699Z,14.19
2022-09-18T23:15:51.288Z,14.13
2022-09-18T23:17:52.798Z,14.14
2022-09-18T23:19:54.321Z,14.25
2022-09-18T23:21:56.144Z,14.20
2022-09-18T23:23:59.446Z,14.14
2022-09-18T23:26:06.010Z,14.09
2022-09-18T23:28:07.495Z,14.17
2022-09-18T23:30:11.601Z,14.14
2022-09-18T23:32:13.232Z,14.10
2022-09-18T23:34:16.633Z,14.11
2022-09-18T23:36:20.762Z,14.19
2022-09-18T23:38:22.287Z,14.17
2022-09-18T23:40:23.934Z,14.07
2022-09-18T23:42:25.465Z,13.99
2022-09-18T23:44:28.147Z,13.94
2022-09-18T23:46:31.825Z,14.01
2022-09-18T23:48:33.397Z,13.87
2022-09-18T23:50:34.865Z,13.78
2022-09-18T23:52:36.374Z,13.83
2022-09-18T23:54:37.871Z,13.82
2022-09-18T23:56:39.566Z,13.72
2022-09-18T23:58:41.128Z,13.64
